Time;durP1;ratioP1;P1;durP2;ratioP2;P2;SDS_P1;SDS_P2;PMS_P1;PMS_P2;Temp;Humidity;BMP_temperature;BMP_pressure;BME280_temperature;BME280_humidity;BME280_pressure;Samples;Min_cycle;Max_cycle;Signal;HPM_P1;HPM_P2
2022/02/09 00:01:23;;;;;;;;;;;;;;;;;;5080854;28;19924;-82
2022/02/09 00:03:45;;;;;;;;;;;;;;;;;;5087391;28;20012;-84
2022/02/09 00:06:15;;;;;;;;;;;;;;;;;;5095842;28;20351;-84
2022/02/09 00:08:41;;;;;;;;;;;;;;;;;;5095931;28;20406;-82
2022/02/09 00:11:08;;;;;;;;;;;;;;;;;;5079168;28;19916;-75
2022/02/09 00:13:53;;;;;;;;;;;;;;;;;;5078272;28;19920;-82
2022/02/09 00:16:43;;;;;;;;;;;;;;;;;;5081977;28;19924;-75
2022/02/09 00:19:14;;;;;;;;;;;;;;;;;;5083136;28;19920;-76
2022/02/09 00:30:01;;;;;;;;;;;;;;;;;;5086169;28;20400;-78
2022/02/09 00:32:46;;;;;;;;;;;;;;;;;;5082870;28;19916;-74
2022/02/09 00:35:31;;;;;;;;;;;;;;;;;;5079631;28;19920;-75
2022/02/09 00:41:19;;;;;;;;;;;;;;;;;;5092056;28;20013;-75
2022/02/09 01:56:59;;;;;;;;;;;;;;;;;;5114473;28;19989;-84
2022/02/09 01:59:24;;;;;;;;;;;;;;;;;;5114190;28;19994;-84
2022/02/09 02:01:50;;;;;;;;;;;;;;;;;;5114277;28;19923;-82
2022/02/09 02:04:15;;;;;;;;;;;;;;;;;;5114140;28;19916;-73
2022/02/09 02:06:43;;;;;;;;;;;;;;;;;;5114110;28;19916;-76
2022/02/09 02:09:09;;;;;;;;;;;;;;;;;;5114038;28;19926;-75
2022/02/09 02:11:46;;;;;;;;;;;;;;;;;;5114027;28;19920;-75
2022/02/09 02:16:51;;;;;;;;;;;;;;;;;;5113986;28;19912;-82
2022/02/09 02:57:32;;;;;;;;;;;;;;;;;;5071248;28;19923;-74
2022/02/09 03:08:39;;;;;;;;;;;;;;;;;;5074797;28;20057;-79
2022/02/09 03:13:54;;;;;;;;;;;;;;;;;;5060341;28;20012;-80
2022/02/09 03:16:29;;;;;;;;;;;;;;;;;;5074518;28;19927;-80
2022/02/09 03:24:00;;;;;;;;;;;;;;;;;;5116912;28;19961;-75
2022/02/09 03:58:08;;;;;;;;;;;;;;;;;;5116548;28;19922;-83
2022/02/09 04:00:38;;;;;;;;;;;;;;;;;;5116291;28;19916;-80
2022/02/09 04:03:05;;;;;;;;;;;;;;;;;;5116334;28;19942;-77
2022/02/09 04:05:31;;;;;;;;;;;;;;;;;;5116361;28;19922;-78
2022/02/09 04:07:57;;;;;;;;;;;;;;;;;;5116203;28;19916;-73
2022/02/09 04:10:31;;;;;;;;;;;;;;;;;;5116351;28;19915;-81
2022/02/09 04:15:45;;;;;;;;;;;;;;;;;;5116033;28;19923;-77
2022/02/09 04:37:05;;;;;;;;;;;;;;;;;;5115927;28;20053;-74
2022/02/09 04:39:45;;;;;;;;;;;;;;;;;;5115837;28;19916;-74
2022/02/09 04:44:52;;;;;;;;;;;;;;;;;;5115559;28;19919;-74
2022/02/09 04:47:45;;;;;;;;;;;;;;;;;;5114395;27;19923;-83
2022/02/09 04:50:26;;;;;;;;;;;;;;;;;;5122395;27;20352;-76
2022/02/09 04:53:01;;;;;;;;;;;;;;;;;;5106247;27;19923;-78
2022/02/09 04:58:11;;;;;;;;;;;;;;;;;;5123443;27;20261;-74
2022/02/09 05:00:55;;;;;;;;;;;;;;;;;;5130197;27;19926;-82
2022/02/09 05:03:56;;;;;;;;;;;;;;;;;;5102988;28;20411;-75
2022/02/09 05:27:50;;;;;;;;;;;;;;;;;;5114734;28;19916;-81
2022/02/09 05:30:16;;;;;;;;;;;;;;;;;;5124606;27;19937;-82
2022/02/09 05:32:41;;;;;;;;;;;;;;;;;;5135217;27;19916;-78
2022/02/09 05:35:07;;;;;;;;;;;;;;;;;;5134841;27;19911;-80
2022/02/09 05:37:32;;;;;;;;;;;;;;;;;;5135040;27;19920;-77
2022/02/09 05:39:58;;;;;;;;;;;;;;;;;;5116544;27;19918;-75
2022/02/09 05:42:24;;;;;;;;;;;;;;;;;;5135039;27;19916;-79
2022/02/09 05:44:49;;;;;;;;;;;;;;;;;;5135020;27;19919;-76
2022/02/09 05:55:37;;;;;;;;;;;;;;;;;;5051363;28;19916;-78
2022/02/09 05:58:12;;;;;;;;;;;;;;;;;;5051481;28;19948;-76
2022/02/09 06:00:41;;;;;;;;;;;;;;;;;;5051595;28;20420;-78
2022/02/09 06:03:07;;;;;;;;;;;;;;;;;;5051466;28;19916;-77
2022/02/09 06:05:32;;;;;;;;;;;;;;;;;;5051523;28;20059;-76
2022/02/09 06:07:58;;;;;;;;;;;;;;;;;;5051354;28;20273;-75
2022/02/09 06:10:28;;;;;;;;;;;;;;;;;;5051339;28;20375;-79
2022/02/09 06:13:15;;;;;;;;;;;;;;;;;;5051312;28;19924;-76
2022/02/09 06:20:58;;;;;;;;;;;;;;;;;;5051280;28;20024;-79
2022/02/09 06:23:26;;;;;;;;;;;;;;;;;;5051203;28;19923;-79
2022/02/09 06:25:52;;;;;;;;;;;;;;;;;;5051301;28;19941;-77
2022/02/09 06:28:17;;;;;;;;;;;;;;;;;;5056286;28;19917;-79
2022/02/09 06:30:42;;;;;;;;;;;;;;;;;;5130348;28;19919;-76
2022/02/09 06:33:08;;;;;;;;;;;;;;;;;;5134059;28;20439;-78
2022/02/09 06:35:33;;;;;;;;;;;;;;;;;;5133943;28;19915;-79
2022/02/09 06:38:00;;;;;;;;;;;;;;;;;;5133653;28;20006;-73
2022/02/09 06:40:26;;;;;;;;;;;;;;;;;;5133858;27;19916;-76
2022/02/09 06:42:51;;;;;;;;;;;;;;;;;;5137696;27;20353;-79
2022/02/09 06:45:26;;;;;;;;;;;;;;;;;;5137928;27;19915;-77
2022/02/09 06:47:52;;;;;;;;;;;;;;;;;;5138448;27;20634;-76
2022/02/09 06:50:25;;;;;;;;;;;;;;;;;;5137758;27;19916;-77
2022/02/09 06:53:03;;;;;;;;;;;;;;;;;;5138103;27;19916;-78
2022/02/09 06:55:28;;;;;;;;;;;;;;;;;;5138235;27;20006;-80
2022/02/09 07:00:21;;;;;;;;;;;;;;;;;;5138409;27;19972;-78
2022/02/09 07:02:47;;;;;;;;;;;;;;;;;;5138049;27;20317;-78
2022/02/09 07:05:13;;;;;;;;;;;;;;;;;;5138231;27;19916;-78
2022/02/09 07:07:39;;;;;;;;;;;;;;;;;;5137995;27;19920;-75
2022/02/09 07:10:05;;;;;;;;;;;;;;;;;;5137529;27;19998;-76
2022/02/09 07:12:31;;;;;;;;;;;;;;;;;;5137958;27;19916;-79
2022/02/09 07:14:56;;;;;;;;;;;;;;;;;;5137695;27;20068;-78
2022/02/09 07:17:22;;;;;;;;;;;;;;;;;;5137787;27;19915;-78
2022/02/09 07:19:57;;;;;;;;;;;;;;;;;;5137861;27;19916;-77
2022/02/09 07:22:25;;;;;;;;;;;;;;;;;;5118093;27;19920;-75
2022/02/09 07:25:02;;;;;;;;;;;;;;;;;;5096558;28;20046;-77
2022/02/09 07:27:39;;;;;;;;;;;;;;;;;;5096474;28;19920;-80
2022/02/09 07:30:06;;;;;;;;;;;;;;;;;;5095687;28;19923;-78
2022/02/09 07:32:31;;;;;;;;;;;;;;;;;;5097893;27;19916;-79
2022/02/09 07:34:57;;;;;;;;;;;;;;;;;;5096222;27;19916;-80
2022/02/09 07:37:22;;;;;;;;;;;;;;;;;;5096030;28;20280;-80
2022/02/09 07:39:48;;;;;;;;;;;;;;;;;;5096394;28;20458;-79
2022/02/09 07:42:21;;;;;;;;;;;;;;;;;;5098092;27;20378;-77
2022/02/09 07:45:28;;;;;;;;;;;;;;;;;;5096006;28;19920;-76
2022/02/09 07:50:30;;;;;;;;;;;;;;;;;;5095394;28;19916;-76
2022/02/09 07:53:38;;;;;;;;;;;;;;;;;;5094640;28;19951;-78
2022/02/09 07:55:47;;;;;;;;;;;;;;;;;;5093821;28;20022;-76
2022/02/09 07:58:13;;;;;;;;;;;;;;;;;;5095692;28;20403;-76
2022/02/09 08:00:39;;;;;;;;;;;;;;;;;;5095903;28;19995;-76
2022/02/09 08:03:04;;;;;;;;;;;;;;;;;;5095873;28;19920;-76
2022/02/09 08:05:31;;;;;;;;;;;;;;;;;;5095606;28;19923;-75
2022/02/09 08:07:56;;;;;;;;;;;;;;;;;;5095651;28;19924;-76
2022/02/09 08:10:44;;;;;;;;;;;;;;;;;;5095294;28;19916;-77
2022/02/09 08:34:08;;;;;;;;;;;;;;;;;;5095132;28;20295;-80
2022/02/09 08:36:33;;;;;;;;;;;;;;;;;;5097256;27;20050;-74
2022/02/09 08:38:58;;;;;;;;;;;;;;;;;;5095163;28;19965;-76
2022/02/09 08:41:24;;;;;;;;;;;;;;;;;;5095326;28;20372;-77
2022/02/09 08:43:49;;;;;;;;;;;;;;;;;;5095116;28;19923;-75
2022/02/09 08:46:16;;;;;;;;;;;;;;;;;;5094820;28;19920;-74
2022/02/09 08:48:42;;;;;;;;;;;;;;;;;;5095023;28;19920;-78
2022/02/09 08:51:08;;;;;;;;;;;;;;;;;;5094006;28;19922;-75
2022/02/09 08:53:34;;;;;;;;;;;;;;;;;;5127547;27;19919;-76
2022/02/09 08:56:00;;;;;;;;;;;;;;;;;;5135578;27;20347;-76
2022/02/09 08:58:25;;;;;;;;;;;;;;;;;;5135422;27;19921;-75
2022/02/09 09:00:57;;;;;;;;;;;;;;;;;;5117048;27;20002;-75
2022/02/09 09:03:27;;;;;;;;;;;;;;;;;;5135395;27;19915;-76
2022/02/09 09:05:57;;;;;;;;;;;;;;;;;;5135179;27;20290;-75
2022/02/09 09:11:40;;;;;;;;;;;;;;;;;;5134837;27;19938;-79
2022/02/09 10:14:14;;;;;;;;;;;;;;;;;;5093595;28;19954;-76
2022/02/09 10:33:05;;;;;;;;;;;;;;;;;;5093263;28;20296;-77
2022/02/09 10:35:35;;;;;;;;;;;;;;;;;;5093050;28;19916;-79
2022/02/09 10:38:22;;;;;;;;;;;;;;;;;;5095008;28;19954;-75
2022/02/09 10:40:51;;;;;;;;;;;;;;;;;;5093148;28;19916;-75
2022/02/09 10:43:33;;;;;;;;;;;;;;;;;;5093119;28;19924;-77
2022/02/09 10:46:21;;;;;;;;;;;;;;;;;;5093125;28;19969;-79
2022/02/09 10:48:54;;;;;;;;;;;;;;;;;;5093340;28;19938;-77
2022/02/09 10:51:51;;;;;;;;;;;;;;;;;;5092777;28;19919;-75
2022/02/09 10:54:25;;;;;;;;;;;;;;;;;;5092802;28;19931;-75
2022/02/09 10:56:57;;;;;;;;;;;;;;;;;;5093167;28;19916;-76
2022/02/09 10:59:31;;;;;;;;;;;;;;;;;;5092744;28;19916;-75
2022/02/09 11:01:58;;;;;;;;;;;;;;;;;;5093066;28;20007;-76
2022/02/09 11:04:23;;;;;;;;;;;;;;;;;;5092604;28;20395;-77
2022/02/09 11:06:49;;;;;;;;;;;;;;;;;;5093169;28;19942;-75
2022/02/09 11:09:19;;;;;;;;;;;;;;;;;;5093157;28;19916;-79
2022/02/09 11:11:45;;;;;;;;;;;;;;;;;;5092393;28;19963;-80
2022/02/09 11:14:14;;;;;;;;;;;;;;;;;;5092858;28;20302;-76
2022/02/09 11:16:43;;;;;;;;;;;;;;;;;;5092888;28;20376;-75
2022/02/09 11:19:11;;;;;;;;;;;;;;;;;;5074461;28;20482;-79
2022/02/09 11:21:38;;;;;;;;;;;;;;;;;;5093087;28;20367;-80
2022/02/09 11:24:16;;;;;;;;;;;;;;;;;;5092417;28;20023;-74
2022/02/09 11:26:59;;;;;;;;;;;;;;;;;;5092989;28;19917;-77
2022/02/09 11:34:53;;;;;;;;;;;;;;;;;;5096810;28;19969;-81
2022/02/09 11:37:37;;;;;;;;;;;;;;;;;;5098333;27;20008;-76
2022/02/09 11:40:24;;;;;;;;;;;;;;;;;;5096042;28;19962;-81
2022/02/09 11:42:59;;;;;;;;;;;;;;;;;;5096262;28;20367;-76
2022/02/09 11:46:05;;;;;;;;;;;;;;;;;;5095960;28;19919;-82
2022/02/09 12:00:24;;;;;;;;;;;;;;;;;;5105658;28;19942;-78
2022/02/09 12:13:54;;;;;;;;;;;;;;;;;;5109271;28;19920;-81
2022/02/09 12:19:31;;;;;;;;;;;;;;;;;;5087533;27;19955;-76
2022/02/09 12:22:10;;;;;;;;;;;;;;;;;;5111861;28;20015;-75
2022/02/09 12:24:35;;;;;;;;;;;;;;;;;;5114587;27;20004;-80
2022/02/09 12:27:03;;;;;;;;;;;;;;;;;;5112045;28;19967;-75
2022/02/09 12:29:36;;;;;;;;;;;;;;;;;;5123972;27;19928;-79
2022/02/09 12:32:20;;;;;;;;;;;;;;;;;;5113574;28;20007;-77
2022/02/09 12:34:56;;;;;;;;;;;;;;;;;;5112656;27;19958;-75
2022/02/09 12:37:22;;;;;;;;;;;;;;;;;;5118403;27;19983;-76
2022/02/09 12:39:50;;;;;;;;;;;;;;;;;;5125633;27;20318;-76
2022/02/09 12:42:16;;;;;;;;;;;;;;;;;;5124369;27;20391;-75
2022/02/09 12:44:41;;;;;;;;;;;;;;;;;;5119716;27;19958;-76
2022/02/09 12:47:07;;;;;;;;;;;;;;;;;;5123908;27;19915;-77
2022/02/09 12:49:32;;;;;;;;;;;;;;;;;;5119332;27;19928;-75
2022/02/09 12:51:58;;;;;;;;;;;;;;;;;;5122549;27;20293;-78
2022/02/09 12:54:24;;;;;;;;;;;;;;;;;;5114807;28;19924;-75
2022/02/09 12:56:51;;;;;;;;;;;;;;;;;;5114929;28;20367;-74
2022/02/09 12:59:18;;;;;;;;;;;;;;;;;;5121387;27;20390;-79
2022/02/09 13:01:53;;;;;;;;;;;;;;;;;;5135771;27;19916;-75
2022/02/09 13:04:31;;;;;;;;;;;;;;;;;;5135286;27;19918;-80
2022/02/09 13:07:00;;;;;;;;;;;;;;;;;;5135153;27;20211;-77
2022/02/09 13:09:25;;;;;;;;;;;;;;;;;;5135536;27;19921;-75
2022/02/09 13:11:51;;;;;;;;;;;;;;;;;;5135352;27;19915;-80
2022/02/09 13:14:28;;;;;;;;;;;;;;;;;;5134948;27;20383;-75
2022/02/09 13:25:09;;;;;;;;;;;;;;;;;;5114196;28;19923;-75
2022/02/09 14:03:01;;;;;;;;;;;;;;;;;;5114096;28;19923;-78
2022/02/09 14:13:31;;;;;;;;;;;;;;;;;;5113762;28;19942;-80
2022/02/09 14:53:22;;;;;;;;;;;;;;;;;;5133862;28;19915;-74
2022/02/09 14:58:24;;;;;;;;;;;;;;;;;;5122048;28;19919;-76
2022/02/09 15:03:26;;;;;;;;;;;;;;;;;;5106741;28;19916;-75
2022/02/09 15:23:33;;;;;;;;;;;;;;;;;;5116761;28;19916;-78
2022/02/09 15:26:02;;;;;;;;;;;;;;;;;;5098583;28;19920;-81
2022/02/09 15:28:28;;;;;;;;;;;;;;;;;;5091927;28;19916;-77
2022/02/09 15:33:43;;;;;;;;;;;;;;;;;;5079858;28;20002;-77
2022/02/09 15:36:13;;;;;;;;;;;;;;;;;;5061970;28;20356;-82
2022/02/09 15:38:46;;;;;;;;;;;;;;;;;;5095444;28;20428;-77
2022/02/09 15:41:36;;;;;;;;;;;;;;;;;;5095224;28;20425;-80
2022/02/09 15:56:15;;;;;;;;;;;;;;;;;;5110739;27;19920;-78
2022/02/09 16:06:31;;;;;;;;;;;;;;;;;;5094747;28;19916;-78
2022/02/09 16:09:11;;;;;;;;;;;;;;;;;;5093197;28;19917;-77
2022/02/09 16:22:36;;;;;;;;;;;;;;;;;;5138341;27;19938;-76
2022/02/09 16:33:14;;;;;;;;;;;;;;;;;;5100449;28;19934;-76
2022/02/09 16:46:38;;;;;;;;;;;;;;;;;;5102886;28;20325;-77
2022/02/09 16:49:15;;;;;;;;;;;;;;;;;;5099272;28;19916;-77
2022/02/09 16:51:58;;;;;;;;;;;;;;;;;;5104064;28;20650;-78
2022/02/09 16:54:34;;;;;;;;;;;;;;;;;;5114916;28;19919;-77
2022/02/09 16:57:19;;;;;;;;;;;;;;;;;;5114045;28;19927;-76
2022/02/09 17:18:49;;;;;;;;;;;;;;;;;;5102612;27;19923;-78
2022/02/09 17:21:15;;;;;;;;;;;;;;;;;;5096740;28;19966;-79
2022/02/09 17:23:41;;;;;;;;;;;;;;;;;;5108234;28;19922;-76
2022/02/09 17:26:07;;;;;;;;;;;;;;;;;;5109664;28;19919;-76
2022/02/09 17:28:33;;;;;;;;;;;;;;;;;;5109574;28;20010;-80
2022/02/09 17:34:55;;;;;;;;;;;;;;;;;;5106242;27;20394;-76
2022/02/09 17:37:00;;;;;;;;;;;;;;;;;;5101104;28;19922;-82
2022/02/09 17:53:23;;;;;;;;;;;;;;;;;;5095030;28;19970;-81
2022/02/09 17:53:30;;;;;;;;;;;;;;;;;;5127936;27;19992;-82
2022/02/09 17:55:59;;;;;;;;;;;;;;;;;;5113210;28;19915;-75
2022/02/09 17:58:28;;;;;;;;;;;;;;;;;;5112483;28;20437;-76
2022/02/09 18:00:54;;;;;;;;;;;;;;;;;;5112649;28;19916;-75
2022/02/09 18:03:19;;;;;;;;;;;;;;;;;;5094508;28;20294;-79
2022/02/09 18:05:51;;;;;;;;;;;;;;;;;;5112716;28;19924;-79
2022/02/09 18:08:25;;;;;;;;;;;;;;;;;;5112829;28;20555;-76
2022/02/09 18:48:14;;;;;;;;;;;;;;;;;;5076261;28;19924;-81
2022/02/09 19:04:46;;;;;;;;;;;;;;;;;;5053388;28;19939;-81
2022/02/09 19:18:40;;;;;;;;;;;;;;;;;;5096207;28;19923;-81
2022/02/09 19:26:52;;;;;;;;;;;;;;;;;;5073210;28;19955;-79
2022/02/09 19:48:22;;;;;;;;;;;;;;;;;;5042520;28;20051;-79
2022/02/09 19:51:21;;;;;;;;;;;;;;;;;;5048228;28;19925;-79
2022/02/09 19:56:45;;;;;;;;;;;;;;;;;;5030795;28;19920;-84
2022/02/09 19:59:17;;;;;;;;;;;;;;;;;;5044971;28;19936;-81
2022/02/09 20:01:43;;;;;;;;;;;;;;;;;;5044881;28;20288;-81
2022/02/09 20:04:09;;;;;;;;;;;;;;;;;;5042645;28;20187;-76
2022/02/09 20:06:35;;;;;;;;;;;;;;;;;;5080803;28;20382;-80
2022/02/09 20:09:00;;;;;;;;;;;;;;;;;;5082858;28;20510;-79
2022/02/09 20:11:26;;;;;;;;;;;;;;;;;;5104916;28;19930;-77
2022/02/09 20:13:54;;;;;;;;;;;;;;;;;;5105580;28;19924;-80
2022/02/09 20:16:22;;;;;;;;;;;;;;;;;;5107610;28;19942;-81
2022/02/09 20:18:48;;;;;;;;;;;;;;;;;;5103437;28;19923;-79
2022/02/09 20:21:13;;;;;;;;;;;;;;;;;;5083906;28;19920;-79
2022/02/09 20:23:39;;;;;;;;;;;;;;;;;;5100389;28;19947;-80
2022/02/09 20:26:08;;;;;;;;;;;;;;;;;;5089626;28;19931;-80
2022/02/09 20:28:34;;;;;;;;;;;;;;;;;;5103599;28;19969;-80
2022/02/09 20:31:05;;;;;;;;;;;;;;;;;;5111707;28;19923;-76
2022/02/09 20:33:46;;;;;;;;;;;;;;;;;;5102182;28;19928;-80
2022/02/09 20:36:13;;;;;;;;;;;;;;;;;;5101908;28;19931;-80
2022/02/09 20:38:40;;;;;;;;;;;;;;;;;;5103379;28;19920;-79
2022/02/09 20:41:08;;;;;;;;;;;;;;;;;;5086023;28;19923;-78
2022/02/09 20:43:56;;;;;;;;;;;;;;;;;;5097988;28;19931;-75
2022/02/09 20:46:22;;;;;;;;;;;;;;;;;;5101957;28;20345;-76
2022/02/09 20:48:47;;;;;;;;;;;;;;;;;;5109271;28;19931;-80
2022/02/09 20:51:13;;;;;;;;;;;;;;;;;;5114243;28;19938;-79
2022/02/09 20:53:38;;;;;;;;;;;;;;;;;;5111350;27;19951;-79
2022/02/09 20:56:04;;;;;;;;;;;;;;;;;;5098805;27;21873;-79
2022/02/09 20:58:34;;;;;;;;;;;;;;;;;;5102815;27;20402;-80
2022/02/09 21:01:05;;;;;;;;;;;;;;;;;;5110079;27;20132;-79
2022/02/09 21:06:13;;;;;;;;;;;;;;;;;;5103899;28;20375;-78
2022/02/09 21:11:27;;;;;;;;;;;;;;;;;;5102586;28;19957;-79
2022/02/09 21:14:06;;;;;;;;;;;;;;;;;;5113203;28;19946;-80
2022/02/09 21:24:28;;;;;;;;;;;;;;;;;;5111131;28;19977;-79
2022/02/09 21:32:37;;;;;;;;;;;;;;;;;;5064092;28;19920;-77
2022/02/09 21:54:27;;;;;;;;;;;;;;;;;;5094974;28;19976;-79
2022/02/09 21:56:58;;;;;;;;;;;;;;;;;;5108884;27;20755;-80
2022/02/09 21:59:44;;;;;;;;;;;;;;;;;;5112855;28;19962;-80
2022/02/09 22:21:44;;;;;;;;;;;;;;;;;;5094323;28;20015;-79
2022/02/09 22:25:27;;;;;;;;;;;;;;;;;;5093729;28;19916;-79
2022/02/09 22:27:23;;;;;;;;;;;;;;;;;;5093557;28;20406;-78
2022/02/09 22:56:47;;;;;;;;;;;;;;;;;;5108475;28;19927;-79
2022/02/09 22:59:24;;;;;;;;;;;;;;;;;;5118176;28;19915;-74
2022/02/09 23:01:55;;;;;;;;;;;;;;;;;;5129631;28;19919;-80
2022/02/09 23:07:15;;;;;;;;;;;;;;;;;;5113795;28;19916;-80
2022/02/09 23:09:58;;;;;;;;;;;;;;;;;;5093529;28;19912;-74
2022/02/09 23:15:28;;;;;;;;;;;;;;;;;;5093314;28;19916;-80
2022/02/09 23:56:45;;;;;;;;;;;;;;;;;;5054112;28;19928;-81
